sensor_id;sensor_type;location;lat;lon;timestamp;P1;durP1;ratioP1;P2;durP2;ratioP2
16262;SDS011;8239;48.594;8.598;2023-08-12T00:00:23;5.28;;;4.68;;
16262;SDS011;8239;48.594;8.598;2023-08-12T00:02:50;4.97;;;4.43;;
16262;SDS011;8239;48.594;8.598;2023-08-12T00:05:17;5.15;;;4.72;;
16262;SDS011;8239;48.594;8.598;2023-08-12T00:07:44;5.00;;;4.50;;
16262;SDS011;8239;48.594;8.598;2023-08-12T00:10:11;5.25;;;4.75;;
16262;SDS011;8239;48.594;8.598;2023-08-12T00:12:38;5.38;;;4.85;;
16262;SDS011;8239;48.594;8.598;2023-08-12T00:15:08;5.32;;;4.93;;
16262;SDS011;8239;48.594;8.598;2023-08-12T00:17:35;6.88;;;4.57;;
16262;SDS011;8239;48.594;8.598;2023-08-12T00:20:03;6.25;;;4.97;;
16262;SDS011;8239;48.594;8.598;2023-08-12T00:22:32;5.10;;;4.70;;
16262;SDS011;8239;48.594;8.598;2023-08-12T00:24:59;4.72;;;4.30;;
16262;SDS011;8239;48.594;8.598;2023-08-12T00:27:26;4.85;;;4.35;;
16262;SDS011;8239;48.594;8.598;2023-08-12T00:29:53;5.57;;;4.53;;
16262;SDS011;8239;48.594;8.598;2023-08-12T00:32:21;5.20;;;4.70;;
16262;SDS011;8239;48.594;8.598;2023-08-12T00:34:48;5.55;;;5.05;;
16262;SDS011;8239;48.594;8.598;2023-08-12T00:37:15;5.80;;;5.30;;
16262;SDS011;8239;48.594;8.598;2023-08-12T00:39:42;5.25;;;4.78;;
16262;SDS011;8239;48.594;8.598;2023-08-12T00:42:08;5.25;;;4.75;;
16262;SDS011;8239;48.594;8.598;2023-08-12T00:44:35;4.82;;;4.43;;
16262;SDS011;8239;48.594;8.598;2023-08-12T00:47:02;5.10;;;4.60;;
16262;SDS011;8239;48.594;8.598;2023-08-12T00:49:31;4.80;;;4.40;;
16262;SDS011;8239;48.594;8.598;2023-08-12T00:51:59;5.93;;;4.75;;
16262;SDS011;8239;48.594;8.598;2023-08-12T00:54:27;5.25;;;4.75;;
16262;SDS011;8239;48.594;8.598;2023-08-12T00:56:54;5.13;;;4.68;;
16262;SDS011;8239;48.594;8.598;2023-08-12T00:59:21;5.30;;;4.80;;
16262;SDS011;8239;48.594;8.598;2023-08-12T01:01:49;5.13;;;4.63;;
16262;SDS011;8239;48.594;8.598;2023-08-12T01:04:16;5.03;;;4.60;;
16262;SDS011;8239;48.594;8.598;2023-08-12T01:06:44;5.20;;;4.70;;
16262;SDS011;8239;48.594;8.598;2023-08-12T01:09:11;5.80;;;4.78;;
16262;SDS011;8239;48.594;8.598;2023-08-12T01:11:39;6.65;;;5.25;;
16262;SDS011;8239;48.594;8.598;2023-08-12T01:14:23;5.45;;;4.95;;
16262;SDS011;8239;48.594;8.598;2023-08-12T01:16:56;5.70;;;5.20;;
16262;SDS011;8239;48.594;8.598;2023-08-12T01:19:29;5.22;;;4.72;;
16262;SDS011;8239;48.594;8.598;2023-08-12T01:32:24;5.68;;;4.28;;
16262;SDS011;8239;48.594;8.598;2023-08-12T01:35:01;4.70;;;4.07;;
16262;SDS011;8239;48.594;8.598;2023-08-12T01:37:33;4.63;;;4.15;;
16262;SDS011;8239;48.594;8.598;2023-08-12T01:40:02;4.78;;;4.38;;
16262;SDS011;8239;48.594;8.598;2023-08-12T01:42:30;5.10;;;4.60;;
16262;SDS011;8239;48.594;8.598;2023-08-12T01:44:59;5.53;;;4.05;;
16262;SDS011;8239;48.594;8.598;2023-08-12T01:47:28;5.43;;;4.72;;
16262;SDS011;8239;48.594;8.598;2023-08-12T01:49:55;4.90;;;4.50;;
16262;SDS011;8239;48.594;8.598;2023-08-12T01:52:22;5.25;;;4.50;;
16262;SDS011;8239;48.594;8.598;2023-08-12T01:54:49;5.03;;;4.60;;
16262;SDS011;8239;48.594;8.598;2023-08-12T01:57:16;4.53;;;4.18;;
16262;SDS011;8239;48.594;8.598;2023-08-12T01:59:43;4.45;;;4.05;;
16262;SDS011;8239;48.594;8.598;2023-08-12T02:02:10;4.75;;;4.30;;
16262;SDS011;8239;48.594;8.598;2023-08-12T02:04:39;5.10;;;4.20;;
16262;SDS011;8239;48.594;8.598;2023-08-12T02:07:08;5.80;;;4.43;;
16262;SDS011;8239;48.594;8.598;2023-08-12T02:09:35;4.82;;;4.28;;
16262;SDS011;8239;48.594;8.598;2023-08-12T02:12:01;4.10;;;3.80;;
16262;SDS011;8239;48.594;8.598;2023-08-12T02:14:30;5.07;;;4.47;;
16262;SDS011;8239;48.594;8.598;2023-08-12T02:16:57;4.50;;;4.20;;
16262;SDS011;8239;48.594;8.598;2023-08-12T02:19:24;4.65;;;4.18;;
16262;SDS011;8239;48.594;8.598;2023-08-12T02:21:52;4.20;;;3.90;;
16262;SDS011;8239;48.594;8.598;2023-08-12T02:24:19;4.68;;;4.15;;
16262;SDS011;8239;48.594;8.598;2023-08-12T02:26:46;4.65;;;4.25;;
16262;SDS011;8239;48.594;8.598;2023-08-12T02:29:12;4.68;;;4.10;;
16262;SDS011;8239;48.594;8.598;2023-08-12T02:31:39;4.68;;;4.13;;
16262;SDS011;8239;48.594;8.598;2023-08-12T02:34:07;4.95;;;4.55;;
16262;SDS011;8239;48.594;8.598;2023-08-12T02:36:34;4.47;;;4.07;;
16262;SDS011;8239;48.594;8.598;2023-08-12T02:39:03;4.95;;;4.55;;
16262;SDS011;8239;48.594;8.598;2023-08-12T02:41:30;4.43;;;4.03;;
16262;SDS011;8239;48.594;8.598;2023-08-12T02:43:57;4.95;;;4.45;;
16262;SDS011;8239;48.594;8.598;2023-08-12T02:46:24;5.32;;;4.63;;
16262;SDS011;8239;48.594;8.598;2023-08-12T02:48:51;4.90;;;4.40;;
16262;SDS011;8239;48.594;8.598;2023-08-12T02:51:18;4.68;;;4.07;;
16262;SDS011;8239;48.594;8.598;2023-08-12T02:53:45;4.75;;;4.32;;
16262;SDS011;8239;48.594;8.598;2023-08-12T02:56:13;4.95;;;4.45;;
16262;SDS011;8239;48.594;8.598;2023-08-12T02:58:40;4.72;;;4.28;;
16262;SDS011;8239;48.594;8.598;2023-08-12T03:01:07;4.60;;;4.20;;
16262;SDS011;8239;48.594;8.598;2023-08-12T03:03:34;4.40;;;4.00;;
16262;SDS011;8239;48.594;8.598;2023-08-12T03:06:01;4.32;;;4.03;;
16262;SDS011;8239;48.594;8.598;2023-08-12T03:08:28;4.80;;;4.32;;
16262;SDS011;8239;48.594;8.598;2023-08-12T03:10:58;6.20;;;4.32;;
16262;SDS011;8239;48.594;8.598;2023-08-12T03:13:27;4.63;;;4.22;;
16262;SDS011;8239;48.594;8.598;2023-08-12T03:15:53;4.70;;;4.30;;
16262;SDS011;8239;48.594;8.598;2023-08-12T03:18:21;4.68;;;4.28;;
16262;SDS011;8239;48.594;8.598;2023-08-12T03:20:48;4.65;;;4.20;;
16262;SDS011;8239;48.594;8.598;2023-08-12T03:23:15;5.38;;;3.97;;
16262;SDS011;8239;48.594;8.598;2023-08-12T03:25:42;4.90;;;4.50;;
16262;SDS011;8239;48.594;8.598;2023-08-12T03:28:09;4.55;;;4.15;;
16262;SDS011;8239;48.594;8.598;2023-08-12T03:30:37;5.20;;;4.53;;
16262;SDS011;8239;48.594;8.598;2023-08-12T03:33:04;4.85;;;4.45;;
16262;SDS011;8239;48.594;8.598;2023-08-12T03:35:31;5.13;;;4.45;;
16262;SDS011;8239;48.594;8.598;2023-08-12T03:37:58;4.40;;;4.00;;
16262;SDS011;8239;48.594;8.598;2023-08-12T03:40:25;4.78;;;4.38;;
16262;SDS011;8239;48.594;8.598;2023-08-12T03:42:52;4.88;;;4.10;;
16262;SDS011;8239;48.594;8.598;2023-08-12T03:45:19;4.45;;;4.05;;
16262;SDS011;8239;48.594;8.598;2023-08-12T03:47:47;4.78;;;4.30;;
16262;SDS011;8239;48.594;8.598;2023-08-12T03:50:14;4.60;;;4.20;;
16262;SDS011;8239;48.594;8.598;2023-08-12T03:52:41;4.47;;;4.15;;
16262;SDS011;8239;48.594;8.598;2023-08-12T03:55:08;4.60;;;4.20;;
16262;SDS011;8239;48.594;8.598;2023-08-12T03:57:35;4.88;;;4.32;;
16262;SDS011;8239;48.594;8.598;2023-08-12T04:00:03;5.85;;;4.40;;
16262;SDS011;8239;48.594;8.598;2023-08-12T04:02:32;5.03;;;4.50;;
16262;SDS011;8239;48.594;8.598;2023-08-12T04:05:00;5.32;;;4.55;;
16262;SDS011;8239;48.594;8.598;2023-08-12T04:07:27;4.53;;;4.07;;
16262;SDS011;8239;48.594;8.598;2023-08-12T04:09:54;4.55;;;4.15;;
16262;SDS011;8239;48.594;8.598;2023-08-12T04:12:21;5.80;;;4.28;;
16262;SDS011;8239;48.594;8.598;2023-08-12T04:14:48;6.20;;;4.78;;
16262;SDS011;8239;48.594;8.598;2023-08-12T04:17:15;5.68;;;4.43;;
16262;SDS011;8239;48.594;8.598;2023-08-12T04:19:42;4.88;;;4.47;;
16262;SDS011;8239;48.594;8.598;2023-08-12T04:22:10;5.75;;;4.35;;
16262;SDS011;8239;48.594;8.598;2023-08-12T04:24:37;5.05;;;4.57;;
16262;SDS011;8239;48.594;8.598;2023-08-12T04:27:04;5.15;;;4.75;;
16262;SDS011;8239;48.594;8.598;2023-08-12T04:29:31;5.32;;;4.82;;
16262;SDS011;8239;48.594;8.598;2023-08-12T04:31:58;5.43;;;4.93;;
16262;SDS011;8239;48.594;8.598;2023-08-12T04:34:24;5.05;;;4.55;;
16262;SDS011;8239;48.594;8.598;2023-08-12T04:36:51;5.63;;;4.18;;
16262;SDS011;8239;48.594;8.598;2023-08-12T04:39:20;5.00;;;4.18;;
16262;SDS011;8239;48.594;8.598;2023-08-12T04:41:47;5.88;;;4.25;;
16262;SDS011;8239;48.594;8.598;2023-08-12T04:44:14;4.82;;;4.35;;
16262;SDS011;8239;48.594;8.598;2023-08-12T04:46:41;5.00;;;4.28;;
16262;SDS011;8239;48.594;8.598;2023-08-12T04:49:08;4.75;;;4.35;;
16262;SDS011;8239;48.594;8.598;2023-08-12T04:51:35;4.90;;;4.53;;
16262;SDS011;8239;48.594;8.598;2023-08-12T04:54:02;5.25;;;4.75;;
16262;SDS011;8239;48.594;8.598;2023-08-12T04:56:31;4.90;;;4.50;;
16262;SDS011;8239;48.594;8.598;2023-08-12T04:58:57;5.40;;;4.40;;
16262;SDS011;8239;48.594;8.598;2023-08-12T05:01:24;5.35;;;4.90;;
16262;SDS011;8239;48.594;8.598;2023-08-12T05:03:52;5.72;;;4.70;;
16262;SDS011;8239;48.594;8.598;2023-08-12T05:06:19;4.95;;;4.55;;
16262;SDS011;8239;48.594;8.598;2023-08-12T05:08:45;6.60;;;4.95;;
16262;SDS011;8239;48.594;8.598;2023-08-12T05:11:12;4.80;;;4.25;;
16262;SDS011;8239;48.594;8.598;2023-08-12T05:13:41;5.00;;;4.53;;
16262;SDS011;8239;48.594;8.598;2023-08-12T05:16:08;4.82;;;4.43;;
16262;SDS011;8239;48.594;8.598;2023-08-12T05:18:34;4.97;;;4.47;;
16262;SDS011;8239;48.594;8.598;2023-08-12T05:21:01;4.78;;;4.38;;
16262;SDS011;8239;48.594;8.598;2023-08-12T05:23:28;4.65;;;4.25;;
16262;SDS011;8239;48.594;8.598;2023-08-12T05:25:55;4.72;;;4.32;;
16262;SDS011;8239;48.594;8.598;2023-08-12T05:28:22;4.82;;;4.43;;
16262;SDS011;8239;48.594;8.598;2023-08-12T05:30:50;5.03;;;4.53;;
16262;SDS011;8239;48.594;8.598;2023-08-12T05:33:20;7.15;;;4.90;;
16262;SDS011;8239;48.594;8.598;2023-08-12T05:35:47;5.10;;;4.22;;
16262;SDS011;8239;48.594;8.598;2023-08-12T05:38:14;4.97;;;4.43;;
16262;SDS011;8239;48.594;8.598;2023-08-12T05:40:41;5.32;;;4.18;;
16262;SDS011;8239;48.594;8.598;2023-08-12T05:43:08;4.85;;;4.45;;
16262;SDS011;8239;48.594;8.598;2023-08-12T05:45:35;5.97;;;4.25;;
16262;SDS011;8239;48.594;8.598;2023-08-12T05:48:04;4.65;;;4.18;;
16262;SDS011;8239;48.594;8.598;2023-08-12T05:50:31;5.82;;;4.65;;
16262;SDS011;8239;48.594;8.598;2023-08-12T05:52:58;5.38;;;4.88;;
16262;SDS011;8239;48.594;8.598;2023-08-12T05:55:25;4.80;;;4.40;;
16262;SDS011;8239;48.594;8.598;2023-08-12T05:57:52;5.75;;;4.55;;
16262;SDS011;8239;48.594;8.598;2023-08-12T06:00:18;6.13;;;4.50;;
16262;SDS011;8239;48.594;8.598;2023-08-12T06:02:45;5.82;;;4.32;;
16262;SDS011;8239;48.594;8.598;2023-08-12T06:05:14;4.15;;;3.72;;
16262;SDS011;8239;48.594;8.598;2023-08-12T06:07:41;4.50;;;4.10;;
16262;SDS011;8239;48.594;8.598;2023-08-12T06:10:08;4.53;;;3.80;;
16262;SDS011;8239;48.594;8.598;2023-08-12T06:12:35;4.70;;;4.10;;
16262;SDS011;8239;48.594;8.598;2023-08-12T06:15:02;4.78;;;4.13;;
16262;SDS011;8239;48.594;8.598;2023-08-12T06:17:30;4.65;;;4.25;;
16262;SDS011;8239;48.594;8.598;2023-08-12T06:19:57;4.68;;;4.20;;
16262;SDS011;8239;48.594;8.598;2023-08-12T06:22:25;4.75;;;4.32;;
16262;SDS011;8239;48.594;8.598;2023-08-12T06:24:52;4.57;;;4.18;;
16262;SDS011;8239;48.594;8.598;2023-08-12T06:27:19;8.30;;;4.55;;
16262;SDS011;8239;48.594;8.598;2023-08-12T06:29:46;4.65;;;4.25;;
16262;SDS011;8239;48.594;8.598;2023-08-12T06:32:13;4.30;;;3.92;;
16262;SDS011;8239;48.594;8.598;2023-08-12T06:34:40;4.13;;;3.72;;
16262;SDS011;8239;48.594;8.598;2023-08-12T06:37:06;4.25;;;3.85;;
16262;SDS011;8239;48.594;8.598;2023-08-12T06:39:35;4.80;;;3.50;;
16262;SDS011;8239;48.594;8.598;2023-08-12T06:42:02;5.63;;;3.92;;
16262;SDS011;8239;48.594;8.598;2023-08-12T06:44:29;4.35;;;4.00;;
16262;SDS011;8239;48.594;8.598;2023-08-12T06:46:56;6.00;;;3.70;;
16262;SDS011;8239;48.594;8.598;2023-08-12T06:49:23;3.95;;;3.65;;
16262;SDS011;8239;48.594;8.598;2023-08-12T06:51:50;4.35;;;3.95;;
16262;SDS011;8239;48.594;8.598;2023-08-12T06:54:17;6.03;;;3.65;;
16262;SDS011;8239;48.594;8.598;2023-08-12T06:56:45;3.72;;;3.42;;
16262;SDS011;8239;48.594;8.598;2023-08-12T06:59:12;4.03;;;3.72;;
16262;SDS011;8239;48.594;8.598;2023-08-12T07:01:39;4.60;;;4.20;;
16262;SDS011;8239;48.594;8.598;2023-08-12T07:04:06;4.10;;;3.78;;
16262;SDS011;8239;48.594;8.598;2023-08-12T07:06:33;4.78;;;3.63;;
16262;SDS011;8239;48.594;8.598;2023-08-12T07:09:00;4.95;;;4.65;;
16262;SDS011;8239;48.594;8.598;2023-08-12T07:11:27;4.28;;;3.83;;
16262;SDS011;8239;48.594;8.598;2023-08-12T07:13:55;4.25;;;3.70;;
16262;SDS011;8239;48.594;8.598;2023-08-12T07:16:22;4.25;;;3.80;;
16262;SDS011;8239;48.594;8.598;2023-08-12T07:18:49;4.47;;;3.75;;
16262;SDS011;8239;48.594;8.598;2023-08-12T07:21:16;4.38;;;3.88;;
16262;SDS011;8239;48.594;8.598;2023-08-12T07:23:43;4.15;;;3.90;;
16262;SDS011;8239;48.594;8.598;2023-08-12T07:26:09;4.10;;;3.80;;
16262;SDS011;8239;48.594;8.598;2023-08-12T07:28:36;4.07;;;3.78;;
16262;SDS011;8239;48.594;8.598;2023-08-12T07:31:05;4.72;;;4.32;;
16262;SDS011;8239;48.594;8.598;2023-08-12T07:33:32;4.57;;;4.18;;
16262;SDS011;8239;48.594;8.598;2023-08-12T07:35:58;4.20;;;3.90;;
16262;SDS011;8239;48.594;8.598;2023-08-12T07:38:25;4.32;;;4.03;;
16262;SDS011;8239;48.594;8.598;2023-08-12T07:40:52;4.20;;;3.80;;
16262;SDS011;8239;48.594;8.598;2023-08-12T07:43:19;4.30;;;4.00;;
16262;SDS011;8239;48.594;8.598;2023-08-12T07:45:50;4.50;;;4.10;;
16262;SDS011;8239;48.594;8.598;2023-08-12T07:48:19;4.20;;;3.65;;
16262;SDS011;8239;48.594;8.598;2023-08-12T07:50:45;4.28;;;3.92;;
16262;SDS011;8239;48.594;8.598;2023-08-12T07:53:14;4.30;;;3.92;;
16262;SDS011;8239;48.594;8.598;2023-08-12T07:55:40;4.40;;;4.00;;
16262;SDS011;8239;48.594;8.598;2023-08-12T07:58:07;4.40;;;4.00;;
16262;SDS011;8239;48.594;8.598;2023-08-12T08:00:34;4.38;;;4.00;;
16262;SDS011;8239;48.594;8.598;2023-08-12T08:03:01;4.57;;;4.18;;
16262;SDS011;8239;48.594;8.598;2023-08-12T08:05:30;4.70;;;3.83;;
16262;SDS011;8239;48.594;8.598;2023-08-12T08:07:57;4.40;;;4.00;;
16262;SDS011;8239;48.594;8.598;2023-08-12T08:10:24;4.20;;;3.90;;
16262;SDS011;8239;48.594;8.598;2023-08-12T08:12:51;4.30;;;3.95;;
16262;SDS011;8239;48.594;8.598;2023-08-12T08:15:18;4.63;;;3.80;;
16262;SDS011;8239;48.594;8.598;2023-08-12T08:17:45;4.15;;;3.55;;
16262;SDS011;8239;48.594;8.598;2023-08-12T08:20:12;3.88;;;3.20;;
16262;SDS011;8239;48.594;8.598;2023-08-12T08:22:40;4.07;;;3.10;;
16262;SDS011;8239;48.594;8.598;2023-08-12T08:25:07;3.70;;;3.40;;
16262;SDS011;8239;48.594;8.598;2023-08-12T08:27:34;3.83;;;3.50;;
16262;SDS011;8239;48.594;8.598;2023-08-12T08:30:01;3.33;;;3.08;;
16262;SDS011;8239;48.594;8.598;2023-08-12T08:32:28;3.50;;;3.20;;
16262;SDS011;8239;48.594;8.598;2023-08-12T08:34:58;3.17;;;2.88;;
16262;SDS011;8239;48.594;8.598;2023-08-12T08:37:25;2.97;;;2.78;;
16262;SDS011;8239;48.594;8.598;2023-08-12T08:39:53;3.08;;;2.88;;
16262;SDS011;8239;48.594;8.598;2023-08-12T08:42:20;3.45;;;2.78;;
16262;SDS011;8239;48.594;8.598;2023-08-12T08:44:49;10.70;;;3.38;;
16262;SDS011;8239;48.594;8.598;2023-08-12T08:47:26;3.30;;;3.10;;
16262;SDS011;8239;48.594;8.598;2023-08-12T08:49:57;3.00;;;2.70;;
16262;SDS011;8239;48.594;8.598;2023-08-12T08:52:25;3.03;;;2.72;;
16262;SDS011;8239;48.594;8.598;2023-08-12T08:54:57;2.80;;;2.60;;
16262;SDS011;8239;48.594;8.598;2023-08-12T08:57:26;2.78;;;2.63;;
16262;SDS011;8239;48.594;8.598;2023-08-12T08:59:54;2.72;;;2.55;;
16262;SDS011;8239;48.594;8.598;2023-08-12T09:02:21;2.70;;;2.50;;
16262;SDS011;8239;48.594;8.598;2023-08-12T09:04:49;2.80;;;2.60;;
16262;SDS011;8239;48.594;8.598;2023-08-12T09:07:16;2.60;;;2.40;;
16262;SDS011;8239;48.594;8.598;2023-08-12T09:09:46;2.78;;;2.58;;
16262;SDS011;8239;48.594;8.598;2023-08-12T09:12:16;2.50;;;2.40;;
16262;SDS011;8239;48.594;8.598;2023-08-12T09:14:44;2.70;;;2.50;;
16262;SDS011;8239;48.594;8.598;2023-08-12T09:17:11;2.58;;;2.40;;
16262;SDS011;8239;48.594;8.598;2023-08-12T09:19:38;2.60;;;2.40;;
16262;SDS011;8239;48.594;8.598;2023-08-12T09:22:06;2.55;;;2.30;;
16262;SDS011;8239;48.594;8.598;2023-08-12T09:24:35;2.90;;;2.70;;
16262;SDS011;8239;48.594;8.598;2023-08-12T09:27:02;2.97;;;2.78;;
16262;SDS011;8239;48.594;8.598;2023-08-12T09:29:32;3.20;;;2.70;;
16262;SDS011;8239;48.594;8.598;2023-08-12T09:32:06;2.47;;;2.28;;
16262;SDS011;8239;48.594;8.598;2023-08-12T09:34:35;3.75;;;2.63;;
16262;SDS011;8239;48.594;8.598;2023-08-12T09:37:02;2.90;;;2.50;;
16262;SDS011;8239;48.594;8.598;2023-08-12T09:39:30;3.58;;;2.33;;
16262;SDS011;8239;48.594;8.598;2023-08-12T09:41:57;3.33;;;2.50;;
16262;SDS011;8239;48.594;8.598;2023-08-12T09:44:25;2.53;;;2.30;;
16262;SDS011;8239;48.594;8.598;2023-08-12T09:46:57;2.35;;;2.08;;
16262;SDS011;8239;48.594;8.598;2023-08-12T09:49:25;2.42;;;2.22;;
16262;SDS011;8239;48.594;8.598;2023-08-12T09:51:53;2.40;;;2.20;;
16262;SDS011;8239;48.594;8.598;2023-08-12T09:54:20;2.85;;;2.40;;
16262;SDS011;8239;48.594;8.598;2023-08-12T09:56:50;4.25;;;2.35;;
16262;SDS011;8239;48.594;8.598;2023-08-12T09:59:22;2.50;;;2.30;;
16262;SDS011;8239;48.594;8.598;2023-08-12T10:01:50;2.10;;;2.00;;
16262;SDS011;8239;48.594;8.598;2023-08-12T10:04:21;2.72;;;2.45;;
16262;SDS011;8239;48.594;8.598;2023-08-12T10:06:49;2.50;;;2.30;;
16262;SDS011;8239;48.594;8.598;2023-08-12T10:09:16;2.30;;;2.20;;
16262;SDS011;8239;48.594;8.598;2023-08-12T10:11:44;2.60;;;2.40;;
16262;SDS011;8239;48.594;8.598;2023-08-12T10:14:13;2.67;;;2.47;;
16262;SDS011;8239;48.594;8.598;2023-08-12T10:16:41;2.25;;;2.15;;
16262;SDS011;8239;48.594;8.598;2023-08-12T10:19:12;2.33;;;2.13;;
16262;SDS011;8239;48.594;8.598;2023-08-12T10:21:45;3.42;;;2.22;;
16262;SDS011;8239;48.594;8.598;2023-08-12T10:24:13;2.75;;;2.20;;
16262;SDS011;8239;48.594;8.598;2023-08-12T10:26:42;2.33;;;2.13;;
16262;SDS011;8239;48.594;8.598;2023-08-12T10:29:10;2.67;;;2.47;;
16262;SDS011;8239;48.594;8.598;2023-08-12T10:31:37;3.53;;;2.50;;
16262;SDS011;8239;48.594;8.598;2023-08-12T10:34:05;2.63;;;2.20;;
16262;SDS011;8239;48.594;8.598;2023-08-12T10:36:32;3.20;;;2.50;;
16262;SDS011;8239;48.594;8.598;2023-08-12T10:39:02;2.42;;;2.30;;
16262;SDS011;8239;48.594;8.598;2023-08-12T10:41:35;4.28;;;2.40;;
16262;SDS011;8239;48.594;8.598;2023-08-12T10:44:04;3.00;;;2.40;;
16262;SDS011;8239;48.594;8.598;2023-08-12T10:46:32;2.70;;;2.30;;
16262;SDS011;8239;48.594;8.598;2023-08-12T10:49:04;2.53;;;2.20;;
16262;SDS011;8239;48.594;8.598;2023-08-12T10:51:41;2.75;;;2.55;;
16262;SDS011;8239;48.594;8.598;2023-08-12T10:54:17;2.72;;;2.50;;
16262;SDS011;8239;48.594;8.598;2023-08-12T10:57:04;2.95;;;2.60;;
16262;SDS011;8239;48.594;8.598;2023-08-12T10:59:51;3.70;;;2.50;;
16262;SDS011;8239;48.594;8.598;2023-08-12T11:02:21;3.13;;;2.45;;
16262;SDS011;8239;48.594;8.598;2023-08-12T11:04:52;4.95;;;2.40;;
16262;SDS011;8239;48.594;8.598;2023-08-12T11:07:21;2.90;;;2.55;;
16262;SDS011;8239;48.594;8.598;2023-08-12T11:09:58;2.83;;;2.50;;
16262;SDS011;8239;48.594;8.598;2023-08-12T11:12:29;3.67;;;2.60;;
16262;SDS011;8239;48.594;8.598;2023-08-12T11:14:57;2.85;;;2.42;;
16262;SDS011;8239;48.594;8.598;2023-08-12T11:17:32;3.17;;;2.55;;
16262;SDS011;8239;48.594;8.598;2023-08-12T11:20:00;2.53;;;2.28;;
16262;SDS011;8239;48.594;8.598;2023-08-12T11:22:30;2.72;;;2.50;;
16262;SDS011;8239;48.594;8.598;2023-08-12T11:25:00;2.65;;;2.45;;
16262;SDS011;8239;48.594;8.598;2023-08-12T11:27:27;2.58;;;2.30;;
16262;SDS011;8239;48.594;8.598;2023-08-12T11:29:55;2.20;;;2.00;;
16262;SDS011;8239;48.594;8.598;2023-08-12T11:32:22;3.63;;;2.40;;
16262;SDS011;8239;48.594;8.598;2023-08-12T11:34:52;2.92;;;2.40;;
16262;SDS011;8239;48.594;8.598;2023-08-12T11:37:19;3.35;;;2.40;;
16262;SDS011;8239;48.594;8.598;2023-08-12T11:39:46;3.85;;;2.25;;
16262;SDS011;8239;48.594;8.598;2023-08-12T11:42:18;5.57;;;2.65;;
16262;SDS011;8239;48.594;8.598;2023-08-12T11:44:45;5.18;;;2.90;;
16262;SDS011;8239;48.594;8.598;2023-08-12T11:47:15;3.55;;;2.50;;
16262;SDS011;8239;48.594;8.598;2023-08-12T11:49:42;2.97;;;2.42;;
16262;SDS011;8239;48.594;8.598;2023-08-12T11:52:09;7.68;;;3.15;;
16262;SDS011;8239;48.594;8.598;2023-08-12T11:54:37;7.78;;;3.17;;
16262;SDS011;8239;48.594;8.598;2023-08-12T11:57:06;4.18;;;3.20;;
16262;SDS011;8239;48.594;8.598;2023-08-12T11:59:35;3.40;;;2.67;;
16262;SDS011;8239;48.594;8.598;2023-08-12T12:02:04;2.90;;;2.70;;
16262;SDS011;8239;48.594;8.598;2023-08-12T12:04:31;5.15;;;3.22;;
16262;SDS011;8239;48.594;8.598;2023-08-12T12:06:58;4.45;;;3.00;;
16262;SDS011;8239;48.594;8.598;2023-08-12T12:09:31;5.53;;;3.17;;
16262;SDS011;8239;48.594;8.598;2023-08-12T12:11:59;4.97;;;3.33;;
16262;SDS011;8239;48.594;8.598;2023-08-12T12:14:26;4.90;;;3.10;;
16262;SDS011;8239;48.594;8.598;2023-08-12T12:16:56;5.35;;;3.40;;
16262;SDS011;8239;48.594;8.598;2023-08-12T12:19:23;3.80;;;3.28;;
16262;SDS011;8239;48.594;8.598;2023-08-12T12:21:50;4.22;;;3.17;;
16262;SDS011;8239;48.594;8.598;2023-08-12T12:24:19;4.07;;;3.40;;
16262;SDS011;8239;48.594;8.598;2023-08-12T12:26:47;6.07;;;3.17;;
16262;SDS011;8239;48.594;8.598;2023-08-12T12:29:14;3.78;;;3.38;;
16262;SDS011;8239;48.594;8.598;2023-08-12T12:31:44;4.07;;;3.13;;
16262;SDS011;8239;48.594;8.598;2023-08-12T12:34:12;3.72;;;3.10;;
16262;SDS011;8239;48.594;8.598;2023-08-12T12:36:40;4.78;;;3.53;;
16262;SDS011;8239;48.594;8.598;2023-08-12T12:39:07;4.55;;;3.30;;
16262;SDS011;8239;48.594;8.598;2023-08-12T12:41:34;4.80;;;3.50;;
16262;SDS011;8239;48.594;8.598;2023-08-12T12:44:02;5.57;;;3.35;;
16262;SDS011;8239;48.594;8.598;2023-08-12T12:46:29;5.03;;;3.50;;
16262;SDS011;8239;48.594;8.598;2023-08-12T12:48:57;3.97;;;3.17;;
16262;SDS011;8239;48.594;8.598;2023-08-12T12:51:26;3.80;;;3.22;;
16262;SDS011;8239;48.594;8.598;2023-08-12T12:53:54;4.00;;;3.20;;
16262;SDS011;8239;48.594;8.598;2023-08-12T12:56:21;5.25;;;3.33;;
16262;SDS011;8239;48.594;8.598;2023-08-12T12:58:49;4.80;;;3.20;;
16262;SDS011;8239;48.594;8.598;2023-08-12T13:01:19;3.25;;;2.85;;
16262;SDS011;8239;48.594;8.598;2023-08-12T13:03:50;3.88;;;3.20;;
16262;SDS011;8239;48.594;8.598;2023-08-12T13:06:20;3.83;;;3.40;;
16262;SDS011;8239;48.594;8.598;2023-08-12T13:08:52;4.95;;;3.08;;
16262;SDS011;8239;48.594;8.598;2023-08-12T13:11:19;3.30;;;3.00;;
16262;SDS011;8239;48.594;8.598;2023-08-12T13:13:46;3.25;;;2.85;;
16262;SDS011;8239;48.594;8.598;2023-08-12T13:16:13;3.65;;;3.10;;
16262;SDS011;8239;48.594;8.598;2023-08-12T13:18:40;3.40;;;3.17;;
16262;SDS011;8239;48.594;8.598;2023-08-12T13:21:08;3.42;;;3.05;;
16262;SDS011;8239;48.594;8.598;2023-08-12T13:23:35;3.85;;;3.03;;
16262;SDS011;8239;48.594;8.598;2023-08-12T13:26:04;5.88;;;3.08;;
16262;SDS011;8239;48.594;8.598;2023-08-12T13:28:31;3.28;;;2.97;;
16262;SDS011;8239;48.594;8.598;2023-08-12T13:30:59;3.95;;;3.20;;
16262;SDS011;8239;48.594;8.598;2023-08-12T13:33:26;3.60;;;3.03;;
16262;SDS011;8239;48.594;8.598;2023-08-12T13:35:53;3.30;;;2.88;;
16262;SDS011;8239;48.594;8.598;2023-08-12T13:38:20;3.42;;;3.13;;
16262;SDS011;8239;48.594;8.598;2023-08-12T13:40:47;4.35;;;3.20;;
16262;SDS011;8239;48.594;8.598;2023-08-12T13:43:16;3.50;;;3.20;;
16262;SDS011;8239;48.594;8.598;2023-08-12T13:45:43;3.47;;;3.10;;
16262;SDS011;8239;48.594;8.598;2023-08-12T13:48:10;3.10;;;2.90;;
16262;SDS011;8239;48.594;8.598;2023-08-12T13:50:37;3.50;;;3.10;;
16262;SDS011;8239;48.594;8.598;2023-08-12T13:53:05;3.42;;;3.13;;
16262;SDS011;8239;48.594;8.598;2023-08-12T13:55:32;3.83;;;2.92;;
16262;SDS011;8239;48.594;8.598;2023-08-12T13:57:59;3.65;;;3.35;;
16262;SDS011;8239;48.594;8.598;2023-08-12T14:00:27;4.10;;;2.92;;
16262;SDS011;8239;48.594;8.598;2023-08-12T14:02:54;3.67;;;3.30;;
16262;SDS011;8239;48.594;8.598;2023-08-12T14:05:21;4.47;;;3.35;;
16262;SDS011;8239;48.594;8.598;2023-08-12T14:07:48;3.10;;;2.85;;
16262;SDS011;8239;48.594;8.598;2023-08-12T14:10:15;4.78;;;3.20;;
16262;SDS011;8239;48.594;8.598;2023-08-12T14:12:42;3.45;;;3.15;;
16262;SDS011;8239;48.594;8.598;2023-08-12T14:15:10;3.88;;;2.90;;
16262;SDS011;8239;48.594;8.598;2023-08-12T14:17:38;3.30;;;3.00;;
16262;SDS011;8239;48.594;8.598;2023-08-12T14:20:06;3.80;;;3.05;;
16262;SDS011;8239;48.594;8.598;2023-08-12T14:22:33;3.47;;;3.17;;
16262;SDS011;8239;48.594;8.598;2023-08-12T14:25:01;3.95;;;3.45;;
16262;SDS011;8239;48.594;8.598;2023-08-12T14:27:28;3.72;;;3.20;;
16262;SDS011;8239;48.594;8.598;2023-08-12T14:29:55;3.55;;;3.22;;
16262;SDS011;8239;48.594;8.598;2023-08-12T14:32:22;3.35;;;3.05;;
16262;SDS011;8239;48.594;8.598;2023-08-12T14:34:50;3.25;;;2.95;;
16262;SDS011;8239;48.594;8.598;2023-08-12T14:37:17;3.75;;;3.13;;
16262;SDS011;8239;48.594;8.598;2023-08-12T14:39:44;3.75;;;3.40;;
16262;SDS011;8239;48.594;8.598;2023-08-12T14:42:14;3.78;;;3.13;;
16262;SDS011;8239;48.594;8.598;2023-08-12T14:44:41;4.32;;;3.10;;
16262;SDS011;8239;48.594;8.598;2023-08-12T14:47:08;3.28;;;2.90;;
16262;SDS011;8239;48.594;8.598;2023-08-12T14:49:35;3.97;;;3.13;;
16262;SDS011;8239;48.594;8.598;2023-08-12T14:52:03;3.35;;;2.85;;
16262;SDS011;8239;48.594;8.598;2023-08-12T14:54:30;3.33;;;3.08;;
16262;SDS011;8239;48.594;8.598;2023-08-12T14:56:57;5.07;;;3.05;;
16262;SDS011;8239;48.594;8.598;2023-08-12T14:59:24;3.20;;;2.90;;
16262;SDS011;8239;48.594;8.598;2023-08-12T15:01:51;4.10;;;3.25;;
16262;SDS011;8239;48.594;8.598;2023-08-12T15:04:18;3.38;;;3.08;;
16262;SDS011;8239;48.594;8.598;2023-08-12T15:06:45;4.35;;;3.38;;
16262;SDS011;8239;48.594;8.598;2023-08-12T15:09:14;3.78;;;3.03;;
16262;SDS011;8239;48.594;8.598;2023-08-12T15:11:42;3.83;;;2.92;;
16262;SDS011;8239;48.594;8.598;2023-08-12T15:14:09;3.65;;;3.17;;